Time;durP1;ratioP1;P1;durP2;ratioP2;P2;SDS_P1;SDS_P2;PMS_P1;PMS_P2;Temp;Humidity;BMP_temperature;BMP_pressure;BME280_temperature;BME280_humidity;BME280_pressure;Samples;Min_cycle;Max_cycle;Signal;HPM_P1;HPM_P2
2022/09/06 00:02:19;;;;;;;;;;;21.40;72.50;;;;;;5065100;28;19913;-66
2022/09/06 00:04:44;;;;;;;;;;;21.40;72.70;;;;;;5065738;28;19912;-66
2022/09/06 00:07:10;;;;;;;;;;;21.40;72.80;;;;;;5065482;28;20584;-66
2022/09/06 00:09:36;;;;;;;;;;;21.30;72.80;;;;;;5048043;28;19920;-67
2022/09/06 00:12:01;;;;;;;;;;;21.40;72.90;;;;;;5065061;28;19920;-66
2022/09/06 00:14:27;;;;;;;;;;;21.30;73.00;;;;;;5065873;28;19916;-66
2022/09/06 00:16:52;;;;;;;;;;;21.30;72.90;;;;;;5065719;28;20319;-66
2022/09/06 00:19:18;;;;;;;;;;;21.30;73.00;;;;;;5064798;28;19928;-66
2022/09/06 00:21:43;;;;;;;;;;;21.30;72.90;;;;;;5065515;28;19912;-66
2022/09/06 00:24:09;;;;;;;;;;;21.30;72.90;;;;;;5065451;28;20357;-66
2022/09/06 00:26:34;;;;;;;;;;;21.30;72.90;;;;;;5065507;28;19921;-66
2022/09/06 00:29:00;;;;;;;;;;;21.20;73.10;;;;;;5065776;28;19919;-66
2022/09/06 00:31:26;;;;;;;;;;;21.20;73.20;;;;;;5064794;28;19919;-66
2022/09/06 00:33:52;;;;;;;;;;;21.20;73.10;;;;;;5065379;28;20052;-66
2022/09/06 00:36:18;;;;;;;;;;;21.20;73.40;;;;;;5064895;28;20487;-66
2022/09/06 00:38:44;;;;;;;;;;;21.10;73.30;;;;;;5065439;28;19912;-66
2022/09/06 00:41:10;;;;;;;;;;;21.20;73.50;;;;;;5063754;28;20183;-66
2022/09/06 00:43:36;;;;;;;;;;;21.10;73.30;;;;;;5065532;28;19989;-66
2022/09/06 00:46:02;;;;;;;;;;;21.10;73.40;;;;;;5065381;28;20011;-66
2022/09/06 00:48:27;;;;;;;;;;;21.10;73.50;;;;;;5060060;28;20396;-66
2022/09/06 00:50:55;;;;;;;;;;;21.10;73.60;;;;;;5046555;28;20011;-66
2022/09/06 00:53:21;;;;;;;;;;;21.00;73.50;;;;;;5064452;28;19998;-66
2022/09/06 00:55:47;;;;;;;;;;;21.10;73.50;;;;;;5064663;28;20479;-66
2022/09/06 00:58:13;;;;;;;;;;;21.00;73.40;;;;;;5065256;28;19951;-66
2022/09/06 01:00:38;;;;;;;;;;;21.00;73.40;;;;;;5065095;28;20739;-66
2022/09/06 01:03:04;;;;;;;;;;;21.00;73.40;;;;;;5063315;28;19919;-66
2022/09/06 01:05:50;;;;;;;;;;;21.00;73.60;;;;;;5065175;28;19919;-66
2022/09/06 01:08:19;;;;;;;;;;;21.00;73.60;;;;;;5050556;28;19919;-66
2022/09/06 01:10:54;;;;;;;;;;;21.00;73.50;;;;;;5065040;28;19935;-66
2022/09/06 01:13:19;;;;;;;;;;;21.00;73.40;;;;;;5064047;28;19999;-66
2022/09/06 01:15:53;;;;;;;;;;;21.00;73.50;;;;;;5065041;28;20031;-66
2022/09/06 01:18:37;;;;;;;;;;;21.00;73.20;;;;;;5065116;28;19913;-67
2022/09/06 01:21:21;;;;;;;;;;;21.00;72.50;;;;;;5064431;28;19920;-67
2022/09/06 01:23:50;;;;;;;;;;;21.00;72.40;;;;;;5064935;28;19924;-66
2022/09/06 01:26:34;;;;;;;;;;;21.00;71.80;;;;;;5047206;28;19944;-67
2022/09/06 01:29:00;;;;;;;;;;;21.00;71.70;;;;;;5064645;28;20008;-66
2022/09/06 01:31:30;;;;;;;;;;;21.00;72.10;;;;;;5064218;28;19962;-66
2022/09/06 01:34:04;;;;;;;;;;;21.00;72.10;;;;;;5048149;28;19913;-66
2022/09/06 01:36:39;;;;;;;;;;;21.00;71.80;;;;;;5065034;28;19913;-66
2022/09/06 01:39:04;;;;;;;;;;;21.00;71.70;;;;;;5064710;28;20244;-66
2022/09/06 01:41:31;;;;;;;;;;;21.00;71.60;;;;;;5064446;28;19916;-66
2022/09/06 01:43:57;;;;;;;;;;;21.00;71.20;;;;;;5067407;28;19967;-66
2022/09/06 01:46:44;;;;;;;;;;;21.00;71.20;;;;;;5067767;28;20363;-66
2022/09/06 01:49:25;;;;;;;;;;;20.90;71.50;;;;;;5068342;28;19944;-66
2022/09/06 01:52:09;;;;;;;;;;;21.00;71.50;;;;;;5065885;28;19924;-66
2022/09/06 01:54:47;;;;;;;;;;;21.00;71.60;;;;;;5068249;28;19912;-66
2022/09/06 01:57:12;;;;;;;;;;;20.90;71.20;;;;;;5067939;28;19912;-66
2022/09/06 01:59:37;;;;;;;;;;;20.90;71.00;;;;;;5068192;28;19920;-66
2022/09/06 02:02:06;;;;;;;;;;;21.00;71.30;;;;;;5066672;28;20033;-66
2022/09/06 02:04:34;;;;;;;;;;;21.00;71.30;;;;;;5066340;28;20534;-66
2022/09/06 02:07:02;;;;;;;;;;;21.00;71.20;;;;;;5065043;28;19921;-66
2022/09/06 02:09:31;;;;;;;;;;;21.00;71.30;;;;;;5066050;28;20003;-66
2022/09/06 02:11:58;;;;;;;;;;;21.00;71.30;;;;;;5063688;28;19916;-66
2022/09/06 02:14:30;;;;;;;;;;;20.90;71.20;;;;;;5062893;28;19913;-67
2022/09/06 02:16:56;;;;;;;;;;;20.90;70.90;;;;;;5066628;28;19918;-66
2022/09/06 02:19:42;;;;;;;;;;;20.90;71.20;;;;;;5067104;28;19916;-66
2022/09/06 02:22:10;;;;;;;;;;;20.90;71.20;;;;;;5067244;28;19913;-66
2022/09/06 02:24:37;;;;;;;;;;;20.90;71.20;;;;;;5062412;28;19916;-66
2022/09/06 02:27:03;;;;;;;;;;;20.90;71.00;;;;;;5062264;28;20027;-66
2022/09/06 02:29:28;;;;;;;;;;;20.90;71.20;;;;;;5067256;28;19943;-66
2022/09/06 02:32:00;;;;;;;;;;;20.90;71.10;;;;;;5067054;28;19913;-67
2022/09/06 02:34:26;;;;;;;;;;;21.00;71.10;;;;;;5066810;28;20007;-66
2022/09/06 02:36:51;;;;;;;;;;;21.00;71.20;;;;;;5066601;28;20050;-67
2022/09/06 02:39:17;;;;;;;;;;;20.90;71.20;;;;;;5067197;28;19913;-67
2022/09/06 02:41:44;;;;;;;;;;;20.90;71.20;;;;;;5032660;28;19913;-66
2022/09/06 02:44:09;;;;;;;;;;;20.90;71.20;;;;;;5066103;28;19920;-66
2022/09/06 02:46:35;;;;;;;;;;;20.90;71.20;;;;;;5066703;28;19917;-67
2022/09/06 02:49:00;;;;;;;;;;;20.90;71.10;;;;;;5065340;28;19920;-67
2022/09/06 02:51:26;;;;;;;;;;;20.90;71.20;;;;;;5048029;28;20345;-68
2022/09/06 02:53:51;;;;;;;;;;;20.90;71.40;;;;;;5065590;28;19912;-67
2022/09/06 02:56:17;;;;;;;;;;;20.90;71.70;;;;;;5066444;28;19916;-66
2022/09/06 02:58:42;;;;;;;;;;;20.80;71.70;;;;;;5066753;28;19919;-66
2022/09/06 03:01:08;;;;;;;;;;;20.90;71.90;;;;;;5066472;28;19921;-66
2022/09/06 03:03:33;;;;;;;;;;;20.80;71.80;;;;;;5066249;28;19935;-66
2022/09/06 03:05:59;;;;;;;;;;;20.80;71.60;;;;;;5067027;28;20541;-66
2022/09/06 03:08:25;;;;;;;;;;;20.80;71.60;;;;;;5067061;28;19963;-66
2022/09/06 03:10:54;;;;;;;;;;;20.80;72.00;;;;;;5066779;28;19947;-66
2022/09/06 03:13:20;;;;;;;;;;;20.80;72.20;;;;;;5067052;28;19932;-66
2022/09/06 03:15:54;;;;;;;;;;;20.80;72.20;;;;;;5066674;28;19982;-66
2022/09/06 03:18:19;;;;;;;;;;;20.80;72.30;;;;;;5065958;28;19999;-66
2022/09/06 03:20:45;;;;;;;;;;;20.70;72.20;;;;;;5066279;28;20023;-67
2022/09/06 03:23:10;;;;;;;;;;;20.80;72.40;;;;;;5066128;28;19908;-66
2022/09/06 03:25:36;;;;;;;;;;;20.70;72.30;;;;;;5066539;28;19916;-66
2022/09/06 03:28:01;;;;;;;;;;;20.70;72.40;;;;;;5066062;28;19913;-66
2022/09/06 03:30:27;;;;;;;;;;;20.70;72.60;;;;;;5066324;28;19971;-66
2022/09/06 03:32:52;;;;;;;;;;;20.70;72.50;;;;;;5066278;28;20328;-66
2022/09/06 03:35:18;;;;;;;;;;;20.70;72.60;;;;;;5066646;28;20348;-66
2022/09/06 03:37:43;;;;;;;;;;;20.70;72.70;;;;;;5066224;28;19912;-66
2022/09/06 03:40:09;;;;;;;;;;;20.70;72.80;;;;;;5048324;28;19924;-66
2022/09/06 03:42:35;;;;;;;;;;;20.70;72.80;;;;;;5062227;28;19912;-66
2022/09/06 03:45:01;;;;;;;;;;;20.70;72.70;;;;;;5066199;28;19917;-66
2022/09/06 03:47:26;;;;;;;;;;;20.70;72.80;;;;;;5065897;28;19908;-66
2022/09/06 03:49:52;;;;;;;;;;;20.70;72.90;;;;;;5066165;28;19981;-66
2022/09/06 03:52:17;;;;;;;;;;;20.60;72.70;;;;;;5065822;28;19916;-66
2022/09/06 03:54:45;;;;;;;;;;;20.60;72.90;;;;;;5065088;28;20351;-66
2022/09/06 03:57:10;;;;;;;;;;;20.60;72.90;;;;;;5065776;28;19966;-66
2022/09/06 03:59:36;;;;;;;;;;;20.60;73.00;;;;;;5062649;28;20399;-66
2022/09/06 04:02:01;;;;;;;;;;;20.60;72.90;;;;;;5065366;28;19917;-66
2022/09/06 04:04:27;;;;;;;;;;;20.60;73.10;;;;;;5065682;28;19924;-66
2022/09/06 04:06:52;;;;;;;;;;;20.60;73.00;;;;;;5065798;28;19919;-66
2022/09/06 04:09:18;;;;;;;;;;;20.60;73.10;;;;;;5065691;28;19916;-66
2022/09/06 04:11:43;;;;;;;;;;;20.60;73.20;;;;;;5065517;28;20433;-66
2022/09/06 04:14:09;;;;;;;;;;;20.60;73.30;;;;;;5065848;28;19916;-66
2022/09/06 04:16:34;;;;;;;;;;;20.60;73.30;;;;;;5065883;28;19920;-66
2022/09/06 04:19:01;;;;;;;;;;;20.60;73.20;;;;;;5065833;28;19912;-66
2022/09/06 04:21:27;;;;;;;;;;;20.60;72.90;;;;;;5065581;28;20346;-66
2022/09/06 04:23:52;;;;;;;;;;;20.50;72.90;;;;;;5065866;28;19951;-66
2022/09/06 04:26:18;;;;;;;;;;;20.50;72.90;;;;;;5065295;28;20075;-66
2022/09/06 04:28:43;;;;;;;;;;;20.50;72.90;;;;;;5047505;28;19986;-66
2022/09/06 04:31:09;;;;;;;;;;;20.50;73.10;;;;;;5065418;28;19995;-66
2022/09/06 04:33:35;;;;;;;;;;;20.50;73.00;;;;;;5065456;28;19986;-66
2022/09/06 04:36:02;;;;;;;;;;;20.50;73.10;;;;;;5066088;28;19912;-66
2022/09/06 04:38:29;;;;;;;;;;;20.50;73.30;;;;;;5065523;28;20561;-66
2022/09/06 04:40:55;;;;;;;;;;;20.50;73.10;;;;;;5041557;28;20329;-66
2022/09/06 04:43:21;;;;;;;;;;;20.50;73.30;;;;;;5065351;28;20097;-66
2022/09/06 04:45:47;;;;;;;;;;;20.50;74.00;;;;;;5065487;28;19919;-66
2022/09/06 04:48:12;;;;;;;;;;;20.50;73.30;;;;;;5065171;28;20372;-66
2022/09/06 04:50:38;;;;;;;;;;;20.50;73.40;;;;;;5064123;28;20276;-66
2022/09/06 04:53:04;;;;;;;;;;;20.40;73.20;;;;;;5064604;28;19931;-66
2022/09/06 04:55:30;;;;;;;;;;;20.50;73.50;;;;;;5064524;28;19909;-66
2022/09/06 04:57:58;;;;;;;;;;;20.40;73.50;;;;;;5064589;28;19973;-66
2022/09/06 05:00:27;;;;;;;;;;;20.40;73.60;;;;;;5063879;28;19925;-66
2022/09/06 05:02:53;;;;;;;;;;;20.40;73.70;;;;;;5064636;28;20392;-66
2022/09/06 05:05:18;;;;;;;;;;;20.40;73.80;;;;;;5065393;28;19995;-66
2022/09/06 05:07:44;;;;;;;;;;;20.40;73.60;;;;;;5065613;28;19923;-66
2022/09/06 05:10:09;;;;;;;;;;;20.40;73.70;;;;;;5064839;28;19959;-66
2022/09/06 05:12:35;;;;;;;;;;;20.40;73.90;;;;;;5064810;28;19908;-66
2022/09/06 05:15:00;;;;;;;;;;;20.40;74.10;;;;;;5064506;28;19978;-66
2022/09/06 05:17:26;;;;;;;;;;;20.40;74.80;;;;;;5065398;28;20380;-66
2022/09/06 05:19:51;;;;;;;;;;;20.40;74.20;;;;;;5068489;28;19923;-66
2022/09/06 05:22:17;;;;;;;;;;;20.40;74.20;;;;;;5068244;28;19919;-66
2022/09/06 05:24:42;;;;;;;;;;;20.40;74.50;;;;;;5050499;28;19917;-66
2022/09/06 05:27:08;;;;;;;;;;;20.40;74.30;;;;;;5050227;28;20054;-66
2022/09/06 05:29:33;;;;;;;;;;;20.30;74.20;;;;;;5068286;28;19912;-66
2022/09/06 05:31:59;;;;;;;;;;;20.40;74.40;;;;;;5068090;28;19916;-66
2022/09/06 05:34:24;;;;;;;;;;;20.30;74.30;;;;;;5068918;28;20023;-66
2022/09/06 05:36:50;;;;;;;;;;;20.40;74.50;;;;;;5068879;28;19985;-66
2022/09/06 05:39:19;;;;;;;;;;;20.30;74.20;;;;;;5068777;28;19919;-66
2022/09/06 05:41:45;;;;;;;;;;;20.30;74.10;;;;;;5062649;28;19920;-66
2022/09/06 05:44:11;;;;;;;;;;;20.30;74.10;;;;;;5068279;28;20368;-66
2022/09/06 05:46:44;;;;;;;;;;;20.30;74.10;;;;;;5068559;28;20351;-66
2022/09/06 05:49:09;;;;;;;;;;;20.30;74.00;;;;;;5068113;28;20446;-66
2022/09/06 05:51:35;;;;;;;;;;;20.30;73.90;;;;;;5047220;28;19965;-66
2022/09/06 05:54:01;;;;;;;;;;;20.30;73.70;;;;;;5068642;28;19908;-66
2022/09/06 05:56:26;;;;;;;;;;;20.30;73.50;;;;;;5050241;28;20300;-66
2022/09/06 05:58:52;;;;;;;;;;;20.30;73.50;;;;;;5050101;28;19952;-66
2022/09/06 06:01:17;;;;;;;;;;;20.30;73.40;;;;;;5067916;28;19959;-66
2022/09/06 06:03:49;;;;;;;;;;;20.30;73.50;;;;;;5068134;28;19913;-66
2022/09/06 06:06:14;;;;;;;;;;;20.30;73.40;;;;;;5066306;28;19956;-66
2022/09/06 06:08:40;;;;;;;;;;;20.30;73.60;;;;;;5067915;28;20353;-66
2022/09/06 06:11:05;;;;;;;;;;;20.30;73.80;;;;;;5067946;28;19912;-66
2022/09/06 06:13:33;;;;;;;;;;;20.30;73.90;;;;;;5067983;28;20297;-66
2022/09/06 06:15:59;;;;;;;;;;;20.30;73.90;;;;;;5067739;28;19940;-66
2022/09/06 06:18:25;;;;;;;;;;;20.30;73.60;;;;;;5067946;28;20512;-66
2022/09/06 06:20:50;;;;;;;;;;;20.30;73.50;;;;;;5066775;28;19959;-66
2022/09/06 06:23:16;;;;;;;;;;;20.30;73.30;;;;;;5067693;28;19912;-66
2022/09/06 06:25:41;;;;;;;;;;;20.30;73.30;;;;;;5067897;28;19959;-66
2022/09/06 06:28:07;;;;;;;;;;;20.30;73.30;;;;;;5049835;28;20632;-66
2022/09/06 06:30:32;;;;;;;;;;;20.30;73.40;;;;;;5066441;28;19920;-67
2022/09/06 06:32:59;;;;;;;;;;;20.30;73.60;;;;;;5067904;28;19916;-66
2022/09/06 06:35:24;;;;;;;;;;;20.30;73.60;;;;;;5068174;28;19916;-66
2022/09/06 06:37:50;;;;;;;;;;;20.30;73.30;;;;;;5067523;28;20343;-66
2022/09/06 06:40:15;;;;;;;;;;;20.30;73.20;;;;;;5049672;28;19916;-66
2022/09/06 06:42:41;;;;;;;;;;;20.30;73.20;;;;;;5067263;28;19935;-66
2022/09/06 06:45:06;;;;;;;;;;;20.30;73.10;;;;;;5049592;28;19912;-66
2022/09/06 06:47:32;;;;;;;;;;;20.30;73.10;;;;;;5067542;28;19913;-66
2022/09/06 06:49:57;;;;;;;;;;;20.30;73.20;;;;;;5067412;28;20497;-66
2022/09/06 06:52:23;;;;;;;;;;;20.30;73.10;;;;;;5066820;28;19919;-66
2022/09/06 06:54:48;;;;;;;;;;;20.30;73.10;;;;;;5066959;28;19916;-67
2022/09/06 06:57:14;;;;;;;;;;;20.30;73.00;;;;;;5066346;28;19943;-67
2022/09/06 06:59:40;;;;;;;;;;;20.30;72.90;;;;;;5066328;28;19965;-68
2022/09/06 07:02:05;;;;;;;;;;;20.30;72.90;;;;;;5066160;28;20281;-66
2022/09/06 07:04:31;;;;;;;;;;;20.30;72.90;;;;;;5065460;28;20376;-66
2022/09/06 07:06:56;;;;;;;;;;;20.40;73.00;;;;;;5066805;28;20375;-66
2022/09/06 07:09:22;;;;;;;;;;;20.40;72.80;;;;;;5066947;28;19908;-66
2022/09/06 07:11:48;;;;;;;;;;;20.40;73.10;;;;;;5066623;28;20544;-66
2022/09/06 07:14:14;;;;;;;;;;;20.40;72.80;;;;;;5067074;28;20003;-66
2022/09/06 07:16:40;;;;;;;;;;;20.40;72.80;;;;;;5067030;28;19952;-66
2022/09/06 07:19:06;;;;;;;;;;;20.40;72.70;;;;;;5066447;28;19971;-66
2022/09/06 07:21:31;;;;;;;;;;;20.40;72.70;;;;;;5066471;28;20614;-66
2022/09/06 07:23:57;;;;;;;;;;;20.40;72.60;;;;;;5066869;28;19912;-66
2022/09/06 07:26:24;;;;;;;;;;;20.40;72.50;;;;;;5066774;28;19912;-67
2022/09/06 07:28:53;;;;;;;;;;;20.40;72.50;;;;;;5066449;28;20387;-66
2022/09/06 07:31:19;;;;;;;;;;;20.50;72.50;;;;;;5066410;28;19916;-67
2022/09/06 07:33:44;;;;;;;;;;;20.50;72.50;;;;;;5066219;28;20006;-66
2022/09/06 07:36:10;;;;;;;;;;;20.50;72.40;;;;;;5066318;28;19963;-66
2022/09/06 07:38:35;;;;;;;;;;;20.50;72.30;;;;;;5048354;28;19920;-66
2022/09/06 07:41:03;;;;;;;;;;;20.50;72.30;;;;;;5065451;28;19916;-66
2022/09/06 07:43:28;;;;;;;;;;;20.60;72.30;;;;;;5066568;28;19924;-66
2022/09/06 07:46:20;;;;;;;;;;;20.60;72.20;;;;;;5066934;28;19920;-66
2022/09/06 07:48:46;;;;;;;;;;;20.60;72.10;;;;;;5062029;28;19908;-66
2022/09/06 07:51:13;;;;;;;;;;;20.70;72.10;;;;;;5065815;28;20428;-66
2022/09/06 07:53:39;;;;;;;;;;;20.70;72.00;;;;;;5048295;28;20349;-66
2022/09/06 07:56:07;;;;;;;;;;;20.70;71.90;;;;;;5066139;28;20484;-66
2022/09/06 07:58:33;;;;;;;;;;;20.80;72.00;;;;;;5063759;28;20015;-66
2022/09/06 08:01:13;;;;;;;;;;;20.80;71.90;;;;;;5065280;28;20027;-66
2022/09/06 08:03:39;;;;;;;;;;;20.80;71.90;;;;;;5065598;28;19978;-66
2022/09/06 08:06:04;;;;;;;;;;;20.80;71.70;;;;;;5047798;28;19920;-66
2022/09/06 08:08:30;;;;;;;;;;;20.90;71.60;;;;;;5066103;28;20274;-66
2022/09/06 08:10:55;;;;;;;;;;;20.90;71.60;;;;;;5065461;28;19967;-66
2022/09/06 08:13:21;;;;;;;;;;;20.90;71.40;;;;;;5065979;28;19916;-66
2022/09/06 08:15:46;;;;;;;;;;;21.00;71.50;;;;;;5065942;28;19912;-67
2022/09/06 08:18:12;;;;;;;;;;;21.00;71.30;;;;;;5065829;28;20015;-66
2022/09/06 08:20:37;;;;;;;;;;;21.10;71.20;;;;;;5065661;28;19917;-66
2022/09/06 08:23:08;;;;;;;;;;;21.10;71.20;;;;;;5065351;28;20466;-66
2022/09/06 08:25:33;;;;;;;;;;;21.20;71.20;;;;;;5065899;28;19919;-66
2022/09/06 08:27:59;;;;;;;;;;;21.20;71.20;;;;;;5065677;28;19921;-66
2022/09/06 08:30:26;;;;;;;;;;;21.20;71.00;;;;;;5065466;28;20557;-66
2022/09/06 08:32:51;;;;;;;;;;;21.30;71.00;;;;;;5065472;28;19963;-66
2022/09/06 08:35:17;;;;;;;;;;;21.30;70.90;;;;;;5065506;28;20419;-66
2022/09/06 08:37:42;;;;;;;;;;;21.40;70.80;;;;;;5065628;28;19912;-66
2022/09/06 08:40:09;;;;;;;;;;;21.40;70.50;;;;;;5065067;28;20023;-66
2022/09/06 08:42:37;;;;;;;;;;;21.50;70.60;;;;;;5065595;28;19951;-66
2022/09/06 08:45:07;;;;;;;;;;;21.60;70.50;;;;;;5059130;28;19912;-66
2022/09/06 08:47:34;;;;;;;;;;;21.60;70.40;;;;;;5060803;28;19912;-66
2022/09/06 08:50:04;;;;;;;;;;;21.60;70.10;;;;;;5065573;28;19944;-66
2022/09/06 08:52:49;;;;;;;;;;;21.70;70.30;;;;;;5065748;28;19916;-66
2022/09/06 08:55:17;;;;;;;;;;;21.70;70.00;;;;;;5069422;28;20494;-66
2022/09/06 08:57:51;;;;;;;;;;;21.70;70.00;;;;;;5069599;28;19947;-66
2022/09/06 09:00:18;;;;;;;;;;;21.80;69.90;;;;;;5051259;28;19951;-66
2022/09/06 09:02:44;;;;;;;;;;;21.80;69.90;;;;;;5068876;28;20567;-66
2022/09/06 09:05:33;;;;;;;;;;;21.90;69.80;;;;;;5069418;28;19908;-66
2022/09/06 09:08:04;;;;;;;;;;;21.90;69.80;;;;;;5058338;28;19916;-66
2022/09/06 09:10:33;;;;;;;;;;;22.00;69.60;;;;;;5069147;28;19952;-66
2022/09/06 09:13:02;;;;;;;;;;;21.90;69.50;;;;;;5068950;28;19920;-66
2022/09/06 09:15:27;;;;;;;;;;;22.00;69.50;;;;;;5069341;28;19916;-66
2022/09/06 09:17:53;;;;;;;;;;;22.10;69.50;;;;;;5069338;28;20254;-66
2022/09/06 09:20:19;;;;;;;;;;;22.10;69.20;;;;;;5069072;28;20595;-66
2022/09/06 09:22:45;;;;;;;;;;;22.10;69.20;;;;;;5069069;28;20344;-66
2022/09/06 09:25:15;;;;;;;;;;;22.10;69.00;;;;;;5069389;28;19991;-66
2022/09/06 09:27:41;;;;;;;;;;;22.20;68.90;;;;;;5051027;28;19938;-66
2022/09/06 09:30:07;;;;;;;;;;;22.20;68.80;;;;;;5069307;28;19926;-66
2022/09/06 09:32:34;;;;;;;;;;;22.30;68.70;;;;;;5068623;28;20016;-66
2022/09/06 09:35:14;;;;;;;;;;;22.30;68.60;;;;;;5068904;28;20585;-66
2022/09/06 09:37:40;;;;;;;;;;;22.30;68.50;;;;;;5064510;28;19915;-66
2022/09/06 09:40:11;;;;;;;;;;;22.30;68.50;;;;;;5068934;28;20284;-66
2022/09/06 09:42:37;;;;;;;;;;;22.40;68.30;;;;;;5050534;28;20265;-66
2022/09/06 09:45:21;;;;;;;;;;;22.40;68.00;;;;;;5063582;28;19924;-66
2022/09/06 09:47:47;;;;;;;;;;;22.50;68.00;;;;;;5068934;28;20345;-66
2022/09/06 09:50:26;;;;;;;;;;;22.60;67.90;;;;;;5068550;28;19919;-66
2022/09/06 09:52:52;;;;;;;;;;;22.60;67.70;;;;;;5068433;28;19952;-66
2022/09/06 09:55:22;;;;;;;;;;;22.60;67.70;;;;;;5068581;28;19956;-67
2022/09/06 09:57:49;;;;;;;;;;;22.60;67.60;;;;;;5068439;28;19913;-66
2022/09/06 10:00:31;;;;;;;;;;;22.70;67.40;;;;;;5068247;28;19921;-66
2022/09/06 10:02:57;;;;;;;;;;;22.70;67.50;;;;;;5066577;28;20625;-66
2022/09/06 10:05:23;;;;;;;;;;;22.80;67.40;;;;;;5066791;28;19912;-66
2022/09/06 10:07:51;;;;;;;;;;;22.80;67.50;;;;;;5066444;28;20366;-66
2022/09/06 10:10:21;;;;;;;;;;;22.80;67.20;;;;;;5068227;28;19908;-67
2022/09/06 10:12:47;;;;;;;;;;;22.80;67.10;;;;;;5068173;28;19961;-67
2022/09/06 10:15:32;;;;;;;;;;;22.90;67.20;;;;;;5068251;28;19912;-67
2022/09/06 10:17:57;;;;;;;;;;;22.90;67.10;;;;;;5068001;28;19916;-67
2022/09/06 10:20:27;;;;;;;;;;;23.00;67.10;;;;;;5067640;28;19931;-67
2022/09/06 10:23:05;;;;;;;;;;;23.00;67.00;;;;;;5067946;28;19916;-67
2022/09/06 10:25:37;;;;;;;;;;;23.10;66.90;;;;;;5049964;28;19913;-67
2022/09/06 10:28:21;;;;;;;;;;;23.10;66.80;;;;;;5068120;28;19951;-67
2022/09/06 10:31:16;;;;;;;;;;;23.10;66.70;;;;;;5067535;28;19912;-68
2022/09/06 10:33:41;;;;;;;;;;;23.20;66.70;;;;;;5049495;28;19916;-67
2022/09/06 10:36:06;;;;;;;;;;;23.30;66.70;;;;;;5067789;28;19995;-67
2022/09/06 10:38:42;;;;;;;;;;;23.30;67.10;;;;;;5067266;28;19912;-67
2022/09/06 10:41:16;;;;;;;;;;;23.40;67.00;;;;;;5066347;28;20602;-68
2022/09/06 10:43:53;;;;;;;;;;;23.50;67.20;;;;;;5066446;28;19920;-67
2022/09/06 10:46:23;;;;;;;;;;;23.60;67.20;;;;;;5066690;28;20377;-68
2022/09/06 10:48:50;;;;;;;;;;;23.70;66.80;;;;;;5066321;28;19921;-67
2022/09/06 10:51:26;;;;;;;;;;;23.70;66.90;;;;;;5066292;28;19912;-67
2022/09/06 10:53:51;;;;;;;;;;;23.80;67.00;;;;;;5065478;28;20065;-67
2022/09/06 10:56:43;;;;;;;;;;;23.90;67.00;;;;;;5067317;28;20023;-67
2022/09/06 10:59:08;;;;;;;;;;;24.00;67.00;;;;;;5063416;28;19917;-67
2022/09/06 11:01:40;;;;;;;;;;;24.10;67.00;;;;;;5067111;28;19950;-66
2022/09/06 11:04:08;;;;;;;;;;;24.20;67.20;;;;;;5067224;28;19913;-67
2022/09/06 11:06:41;;;;;;;;;;;24.30;67.30;;;;;;5067117;28;19989;-66
2022/09/06 11:09:21;;;;;;;;;;;24.40;67.40;;;;;;5067389;28;20610;-67
2022/09/06 11:11:55;;;;;;;;;;;24.50;67.50;;;;;;5066632;28;19966;-67
2022/09/06 11:14:22;;;;;;;;;;;24.60;67.60;;;;;;5067226;28;19912;-67
2022/09/06 11:16:50;;;;;;;;;;;24.80;67.50;;;;;;5065848;28;19912;-67
2022/09/06 11:19:22;;;;;;;;;;;24.90;67.40;;;;;;5066759;28;19908;-67
2022/09/06 11:22:00;;;;;;;;;;;25.00;67.30;;;;;;5066490;28;19928;-67
2022/09/06 11:24:29;;;;;;;;;;;25.10;67.50;;;;;;5048401;28;19947;-67
2022/09/06 11:26:57;;;;;;;;;;;25.30;67.80;;;;;;5066766;28;19919;-67
2022/09/06 11:29:24;;;;;;;;;;;25.40;67.90;;;;;;5066499;28;19912;-67
2022/09/06 11:31:51;;;;;;;;;;;25.50;67.60;;;;;;5065044;28;19931;-67
2022/09/06 11:34:24;;;;;;;;;;;25.60;67.20;;;;;;5064751;28;19941;-67
2022/09/06 11:36:51;;;;;;;;;;;25.70;67.50;;;;;;5065331;28;19912;-67
2022/09/06 11:39:43;;;;;;;;;;;25.80;67.60;;;;;;5065118;28;19912;-67
2022/09/06 11:42:28;;;;;;;;;;;25.90;67.60;;;;;;5060459;28;20413;-67
2022/09/06 11:44:57;;;;;;;;;;;25.90;67.10;;;;;;5063519;28;19928;-67
2022/09/06 11:47:36;;;;;;;;;;;26.10;67.30;;;;;;5064483;28;20631;-67
2022/09/06 11:50:19;;;;;;;;;;;26.20;67.20;;;;;;5064397;28;19913;-67
2022/09/06 11:52:48;;;;;;;;;;;26.20;66.80;;;;;;5064115;28;19909;-67
2022/09/06 11:55:15;;;;;;;;;;;26.30;66.80;;;;;;5062988;28;19966;-66
2022/09/06 11:57:41;;;;;;;;;;;26.40;67.30;;;;;;5045588;28;19943;-67
2022/09/06 12:00:16;;;;;;;;;;;26.40;66.90;;;;;;5065295;28;19974;-65
2022/09/06 12:02:43;;;;;;;;;;;26.50;67.00;;;;;;5063272;28;19927;-67
2022/09/06 12:05:09;;;;;;;;;;;26.60;67.10;;;;;;5065953;28;19992;-67
2022/09/06 12:07:38;;;;;;;;;;;26.70;66.90;;;;;;5066333;28;19999;-67
2022/09/06 12:10:24;;;;;;;;;;;26.70;67.50;;;;;;5064986;28;19913;-67
2022/09/06 12:12:51;;;;;;;;;;;26.80;67.20;;;;;;5023621;28;19973;-67
2022/09/06 12:15:27;;;;;;;;;;;26.90;67.00;;;;;;5065709;28;19908;-66
2022/09/06 12:17:52;;;;;;;;;;;27.00;66.30;;;;;;5065118;28;19998;-66
2022/09/06 12:20:38;;;;;;;;;;;27.00;67.20;;;;;;5065686;28;19920;-67
2022/09/06 12:23:03;;;;;;;;;;;27.10;66.90;;;;;;5065534;28;20701;-67
2022/09/06 12:25:35;;;;;;;;;;;27.10;66.70;;;;;;5065308;28;19916;-67
2022/09/06 12:28:04;;;;;;;;;;;27.20;66.70;;;;;;5046960;28;19920;-67
2022/09/06 12:30:32;;;;;;;;;;;27.20;66.20;;;;;;5063175;28;19913;-66
2022/09/06 12:32:59;;;;;;;;;;;27.30;66.80;;;;;;5065663;28;19913;-66
2022/09/06 12:35:26;;;;;;;;;;;27.30;66.20;;;;;;5065912;28;20572;-67
2022/09/06 12:37:55;;;;;;;;;;;27.40;66.70;;;;;;5065609;28;19950;-67
2022/09/06 12:40:21;;;;;;;;;;;27.40;66.40;;;;;;5064898;28;19920;-67
2022/09/06 12:42:48;;;;;;;;;;;27.50;66.30;;;;;;5065364;28;19916;-66
2022/09/06 12:45:14;;;;;;;;;;;27.50;65.60;;;;;;5047099;28;19916;-67
2022/09/06 12:47:40;;;;;;;;;;;27.50;66.50;;;;;;5065641;28;19918;-66
2022/09/06 12:50:11;;;;;;;;;;;27.60;66.50;;;;;;5065565;28;20369;-67
2022/09/06 12:52:45;;;;;;;;;;;27.60;66.60;;;;;;5065039;28;19952;-66
2022/09/06 12:55:22;;;;;;;;;;;27.60;66.40;;;;;;5065706;28;20000;-67
2022/09/06 12:57:48;;;;;;;;;;;27.70;65.90;;;;;;5065119;28;19982;-67
2022/09/06 13:00:14;;;;;;;;;;;27.70;66.30;;;;;;5064997;28;19970;-67
2022/09/06 13:02:44;;;;;;;;;;;27.80;65.60;;;;;;5062208;28;19912;-66
2022/09/06 13:05:11;;;;;;;;;;;27.80;65.10;;;;;;5046932;28;19916;-66
2022/09/06 13:07:42;;;;;;;;;;;27.80;64.90;;;;;;5065545;28;19915;-67
2022/09/06 13:10:08;;;;;;;;;;;27.90;65.60;;;;;;5065497;28;19912;-66
2022/09/06 13:12:37;;;;;;;;;;;27.90;65.50;;;;;;5064552;28;19916;-66
2022/09/06 13:15:24;;;;;;;;;;;28.00;66.20;;;;;;5064882;28;19916;-66
2022/09/06 13:17:49;;;;;;;;;;;28.00;66.20;;;;;;5064814;28;20388;-66
2022/09/06 13:20:26;;;;;;;;;;;28.10;66.40;;;;;;5064539;28;19913;-66
2022/09/06 13:22:53;;;;;;;;;;;28.00;66.60;;;;;;5064964;28;20010;-66
2022/09/06 13:25:18;;;;;;;;;;;28.10;66.50;;;;;;5065306;28;20537;-66
2022/09/06 13:27:45;;;;;;;;;;;28.10;66.30;;;;;;5065342;28;19970;-66
2022/09/06 13:30:28;;;;;;;;;;;28.20;66.40;;;;;;5065050;28;19951;-66
2022/09/06 13:32:53;;;;;;;;;;;28.20;66.20;;;;;;5064894;28;19917;-66
2022/09/06 13:35:28;;;;;;;;;;;28.30;66.30;;;;;;5064530;28;19913;-67
2022/09/06 13:38:12;;;;;;;;;;;28.40;66.40;;;;;;5064089;28;19917;-67
2022/09/06 13:40:40;;;;;;;;;;;28.40;66.10;;;;;;5068001;28;19960;-66
2022/09/06 13:43:10;;;;;;;;;;;28.50;66.30;;;;;;5068086;28;19999;-67
2022/09/06 13:45:36;;;;;;;;;;;28.50;65.90;;;;;;5068486;28;20600;-66
2022/09/06 13:48:01;;;;;;;;;;;28.60;64.90;;;;;;5067030;28;19990;-66
2022/09/06 13:50:27;;;;;;;;;;;28.60;65.10;;;;;;5068350;28;19940;-67
2022/09/06 13:52:52;;;;;;;;;;;28.70;65.10;;;;;;5068420;28;19913;-66
2022/09/06 13:55:20;;;;;;;;;;;28.70;65.00;;;;;;5068355;28;20043;-66
2022/09/06 13:57:46;;;;;;;;;;;28.70;65.10;;;;;;5068391;28;19916;-66
2022/09/06 14:00:12;;;;;;;;;;;28.80;65.30;;;;;;5068205;28;19920;-67
2022/09/06 14:02:39;;;;;;;;;;;28.80;65.70;;;;;;5065198;28;19999;-66
2022/09/06 14:05:05;;;;;;;;;;;28.80;64.60;;;;;;5068164;28;19909;-67
2022/09/06 14:07:30;;;;;;;;;;;28.90;64.30;;;;;;5067603;28;19923;-66
2022/09/06 14:09:56;;;;;;;;;;;28.90;65.30;;;;;;5067280;28;19917;-67
2022/09/06 14:12:21;;;;;;;;;;;28.90;64.90;;;;;;5067398;28;19916;-67
2022/09/06 14:14:47;;;;;;;;;;;28.80;65.00;;;;;;5067962;28;20572;-67
2022/09/06 14:17:13;;;;;;;;;;;28.80;64.80;;;;;;5068063;28;19913;-67
2022/09/06 14:19:40;;;;;;;;;;;28.80;65.50;;;;;;5049547;28;19920;-66
2022/09/06 14:22:06;;;;;;;;;;;28.80;65.60;;;;;;5067195;28;19923;-67
2022/09/06 14:24:31;;;;;;;;;;;28.90;65.80;;;;;;5067858;28;20464;-67